Time;durP1;ratioP1;P1;durP2;ratioP2;P2;SDS_P1;SDS_P2;PMS_P1;PMS_P2;Temp;Humidity;BMP_temperature;BMP_pressure;BME280_temperature;BME280_humidity;BME280_pressure;Samples;Min_cycle;Max_cycle;Signal;HPM_P1;HPM_P2
2022/12/04 00:01:17;;;;;;;20.93;15.53;;;;;;;2.11;100.00;97805.63;5094586;28;20310;-71
2022/12/04 00:03:43;;;;;;;20.73;15.80;;;;;;;2.20;100.00;97804.56;5094580;28;20635;-71
2022/12/04 00:06:16;;;;;;;20.13;14.80;;;;;;;2.10;100.00;97809.22;5094883;28;20295;-72
2022/12/04 00:08:44;;;;;;;21.97;15.67;;;;;;;2.19;100.00;97802.94;5094922;28;20188;-71
2022/12/04 00:11:12;;;;;;;21.20;15.87;;;;;;;2.20;100.00;97802.78;5094781;28;20269;-71
2022/12/04 00:13:40;;;;;;;18.23;13.90;;;;;;;2.19;100.00;97809.03;5094812;28;20204;-71
2022/12/04 00:16:08;;;;;;;17.53;15.07;;;;;;;2.09;100.00;97800.56;5093747;28;20294;-71
2022/12/04 00:18:35;;;;;;;20.27;14.67;;;;;;;2.16;100.00;97798.88;5076447;28;20696;-71
2022/12/04 00:21:07;;;;;;;19.27;14.43;;;;;;;2.10;100.00;97799.56;5094182;28;20235;-71
2022/12/04 00:23:35;;;;;;;21.53;14.33;;;;;;;2.16;100.00;97795.44;5094564;28;20208;-71
2022/12/04 00:26:03;;;;;;;18.73;13.97;;;;;;;2.13;100.00;97790.53;5094521;28;20200;-71
2022/12/04 00:28:30;;;;;;;16.33;13.03;;;;;;;2.17;100.00;97789.22;5094153;28;20210;-71
2022/12/04 00:30:56;;;;;;;18.60;13.70;;;;;;;2.31;100.00;97781.41;5094069;28;20307;-71
2022/12/04 00:33:23;;;;;;;18.43;12.73;;;;;;;2.22;100.00;97781.63;5094311;28;20204;-71
2022/12/04 00:36:00;;;;;;;20.10;13.80;;;;;;;2.29;100.00;97775.53;5094387;28;20204;-71
2022/12/04 00:38:27;;;;;;;19.23;12.97;;;;;;;2.21;100.00;97780.00;5094048;28;20184;-71
2022/12/04 00:40:54;;;;;;;18.57;13.43;;;;;;;2.10;100.00;97786.47;5093886;28;20227;-71
2022/12/04 00:43:22;;;;;;;20.30;14.50;;;;;;;2.14;100.00;97779.88;5094248;28;20226;-71
2022/12/04 00:45:48;;;;;;;17.87;12.73;;;;;;;2.17;100.00;97783.97;5093875;28;20586;-71
2022/12/04 00:48:14;;;;;;;20.90;13.67;;;;;;;2.20;100.00;97781.81;5094155;28;20210;-71
2022/12/04 00:50:41;;;;;;;22.07;15.00;;;;;;;2.21;100.00;97786.06;5093780;28;20235;-71
2022/12/04 00:53:08;;;;;;;18.90;13.90;;;;;;;2.02;100.00;97781.25;5093846;28;20673;-71
2022/12/04 00:55:37;;;;;;;17.90;13.23;;;;;;;2.17;100.00;97774.28;5093666;28;20212;-71
2022/12/04 00:58:03;;;;;;;20.03;14.20;;;;;;;2.17;100.00;97779.53;5093977;28;20203;-71
2022/12/04 01:00:30;;;;;;;21.23;13.93;;;;;;;2.23;100.00;97775.41;5094150;28;20230;-71
2022/12/04 01:02:57;;;;;;;19.53;13.10;;;;;;;2.19;100.00;97776.72;5094388;28;20204;-71
2022/12/04 01:05:23;;;;;;;19.83;14.33;;;;;;;2.12;100.00;97781.03;5093854;28;20208;-71
2022/12/04 01:07:50;;;;;;;19.17;13.63;;;;;;;2.07;100.00;97778.94;5093795;28;20199;-71
2022/12/04 01:10:16;;;;;;;19.00;13.83;;;;;;;2.12;100.00;97776.59;5093754;28;20199;-71
2022/12/04 01:12:42;;;;;;;20.40;14.40;;;;;;;2.15;100.00;97775.44;5093451;28;20222;-71
2022/12/04 01:15:09;;;;;;;19.90;13.47;;;;;;;2.21;100.00;97780.00;5093628;28;20204;-71
2022/12/04 01:17:36;;;;;;;21.80;13.90;;;;;;;2.26;100.00;97770.59;5093724;28;20204;-71
2022/12/04 01:20:04;;;;;;;18.13;13.40;;;;;;;2.40;100.00;97769.06;5093613;28;20227;-71
2022/12/04 01:22:31;;;;;;;22.73;14.73;;;;;;;2.12;100.00;97765.31;5093618;28;20318;-71
2022/12/04 01:24:57;;;;;;;18.77;13.80;;;;;;;2.19;100.00;97767.06;5093724;28;20290;-71
2022/12/04 01:27:24;;;;;;;18.77;13.77;;;;;;;2.15;100.00;97767.56;5093360;28;20291;-71
2022/12/04 01:29:50;;;;;;;21.73;14.13;;;;;;;2.23;100.00;97765.72;5093529;28;20206;-71
2022/12/04 01:32:17;;;;;;;21.13;14.57;;;;;;;2.27;100.00;97771.44;5093148;28;20223;-71
2022/12/04 01:34:43;;;;;;;16.90;12.80;;;;;;;2.40;100.00;97769.06;5093593;28;20215;-71
2022/12/04 01:37:09;;;;;;;20.17;13.80;;;;;;;2.18;100.00;97769.84;5093483;28;20200;-71
2022/12/04 01:39:37;;;;;;;19.17;13.60;;;;;;;2.35;100.00;97768.78;5093395;28;20200;-71
2022/12/04 01:42:04;;;;;;;20.73;13.50;;;;;;;2.23;100.00;97770.97;5093139;28;20224;-71
2022/12/04 01:44:31;;;;;;;20.23;14.23;;;;;;;2.27;100.00;97766.19;5093500;28;20204;-71
2022/12/04 01:47:00;;;;;;;20.23;13.93;;;;;;;2.18;100.00;97769.84;5093428;28;20210;-71
2022/12/04 01:49:33;;;;;;;18.33;13.17;;;;;;;2.17;100.00;97757.75;5093436;28;20200;-71
2022/12/04 01:52:05;;;;;;;21.57;14.43;;;;;;;2.29;100.00;97754.53;5093014;28;20344;-71
2022/12/04 01:54:36;;;;;;;19.50;13.60;;;;;;;2.26;100.00;97760.13;5093417;28;20192;-71
2022/12/04 01:57:07;;;;;;;21.00;14.30;;;;;;;2.25;100.00;97760.31;5093367;28;20192;-71
2022/12/04 01:59:42;;;;;;;22.03;14.77;;;;;;;2.19;100.00;97766.25;5093205;28;20184;-71
2022/12/04 02:02:12;;;;;;;17.90;13.00;;;;;;;2.21;100.00;97767.69;5093176;28;20261;-71
2022/12/04 02:04:40;;;;;;;20.73;15.00;;;;;;;2.24;100.00;97774.41;5093580;28;20204;-71
2022/12/04 02:07:07;;;;;;;17.83;13.53;;;;;;;2.25;100.00;97778.69;5093230;28;20203;-71
2022/12/04 02:09:35;;;;;;;20.13;13.70;;;;;;;2.21;100.00;97774.75;5093263;28;20219;-71
2022/12/04 02:12:22;;;;;;;18.33;13.90;;;;;;;2.22;100.00;97776.38;5093081;28;20310;-71
2022/12/04 02:15:18;;;;;;;21.73;14.70;;;;;;;2.26;100.00;97767.19;5059248;28;20184;-71
2022/12/04 02:17:57;;;;;;;21.37;14.60;;;;;;;2.31;100.00;97762.25;5064763;28;20261;-71
2022/12/04 02:20:57;;;;;;;19.33;14.13;;;;;;;2.27;100.00;97763.56;5093012;28;20211;-71
2022/12/04 02:23:40;;;;;;;19.60;14.13;;;;;;;2.24;100.00;97754.25;5092862;28;20650;-71
2022/12/04 02:26:16;;;;;;;19.33;13.50;;;;;;;2.26;100.00;97756.69;5092754;28;20192;-72
2022/12/04 02:28:48;;;;;;;21.17;15.00;;;;;;;2.29;100.00;97749.28;5092721;28;20207;-71
2022/12/04 02:31:34;;;;;;;20.27;14.87;;;;;;;2.32;100.00;97751.56;5092873;28;20224;-71
2022/12/04 02:34:05;;;;;;;18.63;14.30;;;;;;;2.37;100.00;97751.88;5092604;28;20204;-71
2022/12/04 02:36:41;;;;;;;18.30;14.23;;;;;;;2.33;100.00;97752.38;5093055;28;20188;-71
2022/12/04 02:39:19;;;;;;;19.93;14.30;;;;;;;2.30;100.00;97750.91;5094893;28;20191;-71
2022/12/04 02:41:54;;;;;;;20.50;14.43;;;;;;;2.30;100.00;97752.75;5096390;28;20227;-71
2022/12/04 02:44:35;;;;;;;20.23;14.67;;;;;;;2.30;100.00;97750.13;5097018;28;20553;-72
2022/12/04 02:47:07;;;;;;;19.10;14.17;;;;;;;2.25;100.00;97748.00;5096571;28;20184;-71
2022/12/04 02:49:44;;;;;;;19.33;15.03;;;;;;;2.30;100.00;97745.66;5096219;28;20279;-71
2022/12/04 02:52:16;;;;;;;19.73;14.23;;;;;;;2.28;100.00;97733.72;5095939;28;20231;-71
2022/12/04 02:54:47;;;;;;;20.67;14.40;;;;;;;2.34;100.00;97738.28;5096511;28;20283;-71
2022/12/04 02:57:24;;;;;;;19.50;13.93;;;;;;;2.29;100.00;97743.22;5096352;28;20184;-71
2022/12/04 02:59:53;;;;;;;18.67;13.77;;;;;;;2.27;100.00;97746.03;5095915;28;20192;-71
2022/12/04 03:02:34;;;;;;;19.47;15.33;;;;;;;2.24;100.00;97735.06;5096173;28;20230;-71
2022/12/04 03:05:09;;;;;;;20.73;15.93;;;;;;;2.30;100.00;97731.75;5096130;28;20188;-71
2022/12/04 03:07:45;;;;;;;20.67;14.93;;;;;;;2.25;100.00;97745.38;5077700;28;20241;-71
2022/12/04 03:10:20;;;;;;;19.13;14.83;;;;;;;2.28;100.00;97738.97;5096122;28;20544;-71
2022/12/04 03:12:59;;;;;;;19.70;15.67;;;;;;;2.23;100.00;97738.69;5095795;28;20638;-71
2022/12/04 03:15:35;;;;;;;21.90;16.00;;;;;;;2.26;100.00;97730.47;5095926;28;20630;-71
2022/12/04 03:18:14;;;;;;;22.73;16.50;;;;;;;2.29;100.00;97719.63;5095983;28;20196;-71
2022/12/04 03:20:44;;;;;;;21.03;16.00;;;;;;;2.35;100.00;97724.97;5095444;28;20310;-71
2022/12/04 03:23:16;;;;;;;21.40;15.40;;;;;;;2.31;100.00;97734.19;5095860;28;20211;-71
2022/12/04 03:26:04;;;;;;;19.80;16.03;;;;;;;2.32;100.00;97725.34;5077467;28;20279;-71
2022/12/04 03:28:47;;;;;;;21.40;15.63;;;;;;;2.37;100.00;97719.56;5095326;28;20204;-71
2022/12/04 03:31:19;;;;;;;18.83;15.10;;;;;;;2.34;100.00;97709.44;5095665;28;20220;-71
2022/12/04 03:33:47;;;;;;;19.77;16.00;;;;;;;2.32;100.00;97720.09;5095641;28;20188;-71
2022/12/04 03:36:21;;;;;;;21.57;15.90;;;;;;;2.27;100.00;97717.19;5095533;28;20200;-71
2022/12/04 03:38:58;;;;;;;22.80;16.80;;;;;;;2.32;100.00;97714.84;5095544;28;20199;-72
2022/12/04 03:41:30;;;;;;;21.30;15.63;;;;;;;2.44;100.00;97712.63;5095329;28;20234;-71
2022/12/04 03:44:04;;;;;;;21.50;15.93;;;;;;;2.34;100.00;97707.63;5095127;28;20700;-71
2022/12/04 03:46:38;;;;;;;20.07;15.50;;;;;;;2.37;100.00;97701.19;5094958;28;20257;-71
2022/12/04 03:49:13;;;;;;;21.77;16.07;;;;;;;2.40;100.00;97695.59;5095700;28;20278;-71
2022/12/04 03:51:45;;;;;;;21.37;15.73;;;;;;;2.34;100.00;97710.25;5095132;28;20235;-71
2022/12/04 03:54:19;;;;;;;23.70;17.07;;;;;;;2.38;100.00;97719.38;5095252;28;20189;-71
2022/12/04 03:56:54;;;;;;;21.03;15.97;;;;;;;2.31;100.00;97712.41;5095199;28;20186;-71
2022/12/04 03:59:26;;;;;;;19.90;15.37;;;;;;;2.37;100.00;97709.91;5094814;28;20565;-71
2022/12/04 04:01:56;;;;;;;20.37;16.60;;;;;;;2.42;100.00;97704.09;5076664;28;20281;-71
2022/12/04 04:04:28;;;;;;;19.70;16.03;;;;;;;2.42;100.00;97709.34;5094969;28;20230;-71
2022/12/04 04:07:04;;;;;;;22.10;16.70;;;;;;;2.36;100.00;97715.31;5094440;28;20188;-71
2022/12/04 04:09:37;;;;;;;21.53;15.97;;;;;;;2.39;100.00;97714.97;5094899;28;20184;-71
2022/12/04 04:12:13;;;;;;;20.73;15.27;;;;;;;2.57;100.00;97718.09;5094378;28;20589;-71
2022/12/04 04:26:13;;;;;;;19.40;15.07;;;;;;;2.29;100.00;97740.59;5094215;28;20183;-71
2022/12/04 04:28:41;;;;;;;21.47;16.33;;;;;;;2.28;100.00;97742.41;5094183;28;20204;-71
2022/12/04 04:31:34;;;;;;;20.40;15.47;;;;;;;2.38;100.00;97744.78;5093928;28;20220;-71
2022/12/04 04:34:28;;;;;;;20.60;15.50;;;;;;;2.41;100.00;97744.44;5094482;28;20196;-71
2022/12/04 04:37:14;;;;;;;21.67;16.57;;;;;;;2.43;100.00;97748.53;5094341;28;20188;-71
2022/12/04 04:39:45;;;;;;;23.07;17.43;;;;;;;2.36;100.00;97752.88;5094240;28;20204;-71
2022/12/04 04:42:29;;;;;;;22.37;15.73;;;;;;;2.44;100.00;97736.25;5093780;28;20231;-71
2022/12/04 04:45:11;;;;;;;22.27;16.43;;;;;;;2.38;100.00;97743.00;5093917;28;20188;-71
2022/12/04 04:47:44;;;;;;;20.80;16.50;;;;;;;2.44;100.00;97734.41;5093707;28;20192;-71
2022/12/04 04:50:14;;;;;;;20.53;16.50;;;;;;;2.55;100.00;97733.19;5094158;28;20228;-71
2022/12/04 04:52:44;;;;;;;21.67;16.17;;;;;;;2.49;100.00;97736.53;5093667;28;20214;-71
2022/12/04 04:55:11;;;;;;;21.67;16.73;;;;;;;2.39;100.00;97735.94;5093722;28;20302;-71
2022/12/04 04:57:37;;;;;;;23.10;17.00;;;;;;;2.32;100.00;97729.75;5093986;28;20204;-71
2022/12/04 05:00:18;;;;;;;22.47;16.20;;;;;;;2.37;100.00;97732.69;5093977;28;20208;-71
2022/12/04 05:02:45;;;;;;;25.00;17.03;;;;;;;2.39;100.00;97738.56;5093188;28;20187;-71
2022/12/04 05:05:13;;;;;;;23.93;16.20;;;;;;;2.42;100.00;97746.91;5093436;28;20204;-71
2022/12/04 05:07:40;;;;;;;22.77;16.10;;;;;;;2.41;100.00;97749.69;5093878;28;20247;-71
2022/12/04 05:10:07;;;;;;;23.03;16.60;;;;;;;2.38;100.00;97750.03;5093675;28;20199;-71
2022/12/04 05:12:34;;;;;;;23.43;16.83;;;;;;;2.34;100.00;97744.34;5093609;28;20226;-71
2022/12/04 05:15:00;;;;;;;22.27;16.13;;;;;;;2.36;100.00;97745.00;5093533;28;20204;-71
2022/12/04 05:17:27;;;;;;;24.73;16.80;;;;;;;2.39;100.00;97741.19;5093243;28;20204;-71
2022/12/04 05:19:52;;;;;;;20.27;15.43;;;;;;;2.34;100.00;97748.78;5093353;28;20208;-71
2022/12/04 05:22:31;;;;;;;21.00;15.03;;;;;;;2.35;100.00;97735.47;5093386;28;20315;-71
2022/12/04 05:24:58;;;;;;;22.93;16.03;;;;;;;2.33;100.00;97741.88;5093236;28;20191;-71
2022/12/04 05:27:26;;;;;;;19.63;15.50;;;;;;;2.34;100.00;97733.03;5093545;28;20203;-71
2022/12/04 05:29:53;;;;;;;21.43;16.10;;;;;;;2.39;100.00;97742.00;5093521;28;20379;-71
2022/12/04 05:32:21;;;;;;;20.23;15.67;;;;;;;2.36;100.00;97741.53;5093388;28;20226;-71
2022/12/04 05:34:49;;;;;;;20.53;15.37;;;;;;;2.26;100.00;97735.72;5093433;28;20567;-71
2022/12/04 05:37:16;;;;;;;21.47;15.47;;;;;;;2.31;100.00;97733.38;5093400;28;20203;-71
2022/12/04 05:39:42;;;;;;;18.70;14.60;;;;;;;2.34;100.00;97733.03;5093318;28;20320;-71
2022/12/04 05:42:09;;;;;;;22.67;15.80;;;;;;;2.23;100.00;97734.25;5092962;28;20512;-71
2022/12/04 05:44:35;;;;;;;22.13;16.40;;;;;;;2.29;100.00;97741.44;5093287;28;20200;-71
2022/12/04 05:47:02;;;;;;;20.53;14.93;;;;;;;2.32;100.00;97741.09;5093052;28;20204;-71
2022/12/04 05:49:29;;;;;;;20.70;15.17;;;;;;;2.27;100.00;97732.09;5093038;28;20203;-71
2022/12/04 05:51:56;;;;;;;20.23;15.50;;;;;;;2.31;100.00;97733.38;5092937;28;20238;-71
2022/12/04 05:54:23;;;;;;;24.83;16.03;;;;;;;2.31;100.00;97725.50;5093139;28;20199;-71
2022/12/04 05:56:50;;;;;;;29.50;20.80;;;;;;;2.36;100.00;97728.44;5093148;28;20238;-71
2022/12/04 05:59:16;;;;;;;18.33;13.57;;;;;;;2.27;100.00;97729.47;5093132;28;20206;-71
2022/12/04 06:01:43;;;;;;;20.63;14.57;;;;;;;2.33;100.00;97728.75;5093043;28;20227;-71
2022/12/04 06:04:11;;;;;;;19.37;15.03;;;;;;;2.27;100.00;97732.09;5093402;28;20678;-71
2022/12/04 06:06:38;;;;;;;20.97;14.60;;;;;;;2.25;100.00;97739.34;5092879;28;20200;-71
2022/12/04 06:09:06;;;;;;;20.43;14.83;;;;;;;2.30;100.00;97742.25;5093090;28;20204;-71
2022/12/04 06:11:35;;;;;;;21.07;15.37;;;;;;;2.31;100.00;97736.81;5093090;28;20581;-71
2022/12/04 06:14:05;;;;;;;20.37;14.33;;;;;;;2.32;100.00;97741.09;5095007;28;20204;-71
2022/12/04 06:16:35;;;;;;;18.80;13.70;;;;;;;2.34;100.00;97731.22;5096759;28;20204;-71
2022/12/04 06:19:06;;;;;;;16.77;13.27;;;;;;;2.32;100.00;97740.25;5097282;28;20210;-71
2022/12/04 06:21:34;;;;;;;18.40;13.60;;;;;;;2.29;100.00;97740.59;5096942;28;20242;-71
2022/12/04 06:24:01;;;;;;;19.57;14.43;;;;;;;2.32;100.00;97735.00;5096945;28;20207;-71
2022/12/04 06:26:28;;;;;;;20.33;14.23;;;;;;;2.33;100.00;97726.16;5096882;28;20204;-71
2022/12/04 06:28:59;;;;;;;20.73;14.60;;;;;;;2.34;100.00;97733.03;5096526;28;20689;-71
2022/12/04 06:31:27;;;;;;;20.60;15.37;;;;;;;2.34;100.00;97728.59;5096793;28;20220;-71
2022/12/04 06:33:55;;;;;;;19.97;15.10;;;;;;;2.31;100.00;97725.50;5096407;28;20207;-71
2022/12/04 06:36:22;;;;;;;21.07;15.03;;;;;;;2.31;100.00;97730.75;5096646;28;20551;-71
2022/12/04 06:38:51;;;;;;;22.60;15.67;;;;;;;2.19;100.00;97730.34;5096537;28;20229;-71
2022/12/04 06:41:20;;;;;;;21.97;15.70;;;;;;;2.29;100.00;97733.56;5096313;28;20309;-71
2022/12/04 06:43:47;;;;;;;19.57;15.00;;;;;;;2.22;100.00;97729.19;5096392;28;20208;-71
2022/12/04 06:46:17;;;;;;;20.90;15.43;;;;;;;2.22;100.00;97729.19;5096385;28;20208;-71
2022/12/04 06:48:44;;;;;;;21.80;14.33;;;;;;;2.26;100.00;97731.28;5097207;28;20227;-71
2022/12/04 06:51:13;;;;;;;18.07;14.50;;;;;;;2.37;100.00;97740.53;5096099;28;20232;-71
2022/12/04 06:53:40;;;;;;;20.40;15.57;;;;;;;2.39;100.00;97735.94;5096372;28;20207;-71
2022/12/04 06:56:09;;;;;;;19.87;15.50;;;;;;;2.43;100.00;97734.63;5096348;28;20208;-71
2022/12/04 06:58:36;;;;;;;19.90;15.60;;;;;;;2.39;100.00;97731.50;5096850;28;20207;-71
2022/12/04 07:01:11;;;;;;;20.13;14.53;;;;;;;2.33;100.00;97739.25;5096121;28;20227;-71
2022/12/04 07:03:39;;;;;;;21.70;15.67;;;;;;;2.29;100.00;97737.97;5095868;28;20681;-71
2022/12/04 07:06:19;;;;;;;20.20;15.13;;;;;;;2.32;100.00;97741.09;5095839;28;20207;-71
2022/12/04 07:08:48;;;;;;;19.03;14.20;;;;;;;2.33;100.00;97736.63;5096047;28;20188;-71
2022/12/04 07:11:15;;;;;;;20.10;14.37;;;;;;;2.37;100.00;97741.38;5095871;28;20232;-71
2022/12/04 07:13:42;;;;;;;20.53;14.90;;;;;;;2.38;100.00;97737.75;5095859;28;20210;-71
2022/12/04 07:16:12;;;;;;;21.37;15.17;;;;;;;2.41;100.00;97744.44;5095847;28;20200;-71
2022/12/04 07:18:39;;;;;;;21.47;15.47;;;;;;;2.31;100.00;97738.63;5095880;28;20210;-71
2022/12/04 07:21:17;;;;;;;22.33;16.13;;;;;;;2.32;100.00;97740.25;5095402;28;20323;-71
2022/12/04 07:23:44;;;;;;;21.67;15.97;;;;;;;2.37;100.00;97737.91;5095380;28;20192;-71
2022/12/04 07:26:13;;;;;;;21.43;15.37;;;;;;;2.39;100.00;97741.19;5095707;28;20290;-72
2022/12/04 07:28:40;;;;;;;19.70;14.47;;;;;;;2.39;100.00;97736.75;5095673;28;20210;-71
2022/12/04 07:31:10;;;;;;;21.50;15.40;;;;;;;2.33;100.00;97736.63;5095166;28;20220;-71
2022/12/04 07:33:37;;;;;;;23.17;15.57;;;;;;;2.37;100.00;97737.91;5095643;28;20210;-71
2022/12/04 07:36:06;;;;;;;21.23;15.23;;;;;;;2.43;100.00;97734.63;5095385;28;20234;-71
2022/12/04 07:38:33;;;;;;;21.40;15.73;;;;;;;2.48;100.00;97734.91;5095489;28;20207;-71
2022/12/04 07:41:01;;;;;;;24.00;15.53;;;;;;;2.40;100.00;97742.81;5095285;28;20231;-71
2022/12/04 07:43:29;;;;;;;20.37;14.77;;;;;;;2.34;100.00;97735.66;5095974;28;20211;-71
2022/12/04 07:45:56;;;;;;;19.77;14.73;;;;;;;2.43;100.00;97735.41;5095447;28;20204;-71
2022/12/04 07:48:23;;;;;;;20.83;13.87;;;;;;;2.51;100.00;97734.53;5094874;28;20666;-71
2022/12/04 07:50:49;;;;;;;20.93;14.97;;;;;;;2.39;100.00;97728.88;5095096;28;20240;-71
2022/12/04 07:53:16;;;;;;;20.37;14.77;;;;;;;2.53;100.00;97732.56;5094913;28;20180;-71
2022/12/04 07:55:42;;;;;;;20.27;14.67;;;;;;;2.44;100.00;97739.66;5095189;28;20200;-71
2022/12/04 07:58:09;;;;;;;20.80;15.00;;;;;;;2.41;100.00;97750.53;5095093;28;20207;-71
2022/12/04 08:00:35;;;;;;;19.27;14.30;;;;;;;2.41;100.00;97749.69;5094957;28;20227;-71
2022/12/04 08:03:01;;;;;;;19.20;13.73;;;;;;;2.49;100.00;97752.28;5094846;28;20224;-71
2022/12/04 08:05:28;;;;;;;19.23;13.93;;;;;;;2.50;100.00;97757.34;5095669;28;20203;-71
2022/12/04 08:07:54;;;;;;;18.53;13.67;;;;;;;2.64;100.00;97747.88;5094743;28;20215;-71
2022/12/04 08:10:21;;;;;;;19.67;14.00;;;;;;;2.61;100.00;97749.03;5094474;28;20206;-71
2022/12/04 08:12:47;;;;;;;19.17;14.07;;;;;;;2.64;100.00;97742.63;5094857;28;20204;-71
2022/12/04 08:15:13;;;;;;;20.90;15.40;;;;;;;2.48;100.00;97743.56;5094885;28;20204;-71
2022/12/04 08:17:40;;;;;;;20.10;14.93;;;;;;;2.49;100.00;97733.91;5095536;28;20210;-71
2022/12/04 08:20:07;;;;;;;23.10;15.50;;;;;;;2.54;100.00;97742.06;5094717;28;20314;-71
2022/12/04 08:22:33;;;;;;;21.40;16.20;;;;;;;2.57;100.00;97742.50;5094355;28;20228;-71
2022/12/04 08:24:59;;;;;;;21.23;15.73;;;;;;;2.55;100.00;97746.31;5094140;28;20206;-71
2022/12/04 08:27:26;;;;;;;20.47;15.10;;;;;;;2.48;100.00;97746.19;5094079;28;20208;-71
2022/12/04 08:29:52;;;;;;;21.53;15.27;;;;;;;2.65;100.00;97736.38;5094295;28;20204;-71
2022/12/04 08:32:18;;;;;;;21.37;14.80;;;;;;;2.60;100.00;97750.03;5094468;28;20230;-71
2022/12/04 08:34:46;;;;;;;20.10;14.73;;;;;;;2.55;100.00;97748.94;5094353;28;20742;-71
2022/12/04 08:37:12;;;;;;;21.90;14.63;;;;;;;2.69;100.00;97748.16;5093532;28;20211;-71
2022/12/04 08:39:39;;;;;;;22.00;15.63;;;;;;;2.67;100.00;97750.16;5094287;28;20204;-71
2022/12/04 08:42:05;;;;;;;22.10;16.23;;;;;;;2.52;100.00;97759.78;5094099;28;20313;-71
2022/12/04 08:44:31;;;;;;;23.27;16.10;;;;;;;2.52;100.00;97763.22;5093764;28;20662;-71
2022/12/04 08:46:58;;;;;;;21.50;15.50;;;;;;;2.60;100.00;97760.53;5094655;28;20229;-71
2022/12/04 08:49:24;;;;;;;20.20;14.47;;;;;;;2.57;100.00;97768.75;5094154;28;20203;-71
2022/12/04 08:51:50;;;;;;;18.23;13.47;;;;;;;2.67;100.00;97765.91;5093583;28;20233;-71
2022/12/04 08:54:17;;;;;;;17.30;12.63;;;;;;;2.72;100.00;97771.44;5093557;28;20204;-71
2022/12/04 08:56:43;;;;;;;19.77;14.17;;;;;;;2.78;100.00;97770.72;5093922;28;20210;-71
2022/12/04 08:59:13;;;;;;;19.37;12.93;;;;;;;2.92;100.00;97780.44;5093885;28;20215;-71
2022/12/04 09:01:39;;;;;;;19.03;13.93;;;;;;;2.66;100.00;97783.44;5093716;28;20228;-71
2022/12/04 09:04:05;;;;;;;19.37;13.33;;;;;;;2.64;100.00;97779.38;5093751;28;20226;-71
2022/12/04 09:06:32;;;;;;;20.13;13.90;;;;;;;2.63;100.00;97777.75;5093807;28;20203;-71
2022/12/04 09:08:58;;;;;;;19.80;13.20;;;;;;;2.71;100.00;97788.19;5093626;28;20287;-71
2022/12/04 09:11:27;;;;;;;19.50;13.83;;;;;;;2.62;100.00;97784.00;5093540;28;20223;-71
2022/12/04 09:13:53;;;;;;;18.87;13.80;;;;;;;2.69;100.00;97784.91;5093713;28;20207;-71
2022/12/04 09:16:22;;;;;;;17.87;13.40;;;;;;;2.73;100.00;97781.75;5094116;28;20203;-71
2022/12/04 09:18:48;;;;;;;18.30;14.43;;;;;;;2.69;100.00;97792.78;5093776;28;20208;-71
2022/12/04 09:21:17;;;;;;;19.50;14.07;;;;;;;2.78;100.00;97784.66;5093140;28;20231;-71
2022/12/04 09:23:44;;;;;;;20.47;13.67;;;;;;;2.71;100.00;97783.72;5093546;28;20200;-71
2022/12/04 09:26:24;;;;;;;17.13;13.63;;;;;;;2.69;100.00;97784.91;5093168;28;20702;-71
2022/12/04 09:28:52;;;;;;;19.00;13.70;;;;;;;2.87;100.00;97780.16;5093554;28;20274;-71
2022/12/04 09:31:20;;;;;;;18.73;14.27;;;;;;;3.03;100.00;97777.41;5093445;28;20228;-71
2022/12/04 09:33:46;;;;;;;17.93;13.73;;;;;;;2.79;100.00;97764.47;5092888;28;20204;-71
2022/12/04 09:36:15;;;;;;;22.07;15.50;;;;;;;2.81;100.00;97760.69;5093331;28;20204;-71
2022/12/04 09:38:43;;;;;;;21.20;15.23;;;;;;;2.72;100.00;97753.88;5093093;28;20287;-71
2022/12/04 09:41:18;;;;;;;20.67;14.60;;;;;;;2.74;100.00;97746.63;5093163;28;20252;-71
2022/12/04 09:44:13;;;;;;;19.90;14.60;;;;;;;2.76;100.00;97749.88;5093139;28;20210;-71
2022/12/04 09:46:54;;;;;;;18.30;14.27;;;;;;;2.90;100.00;97737.81;5077776;28;20200;-71
2022/12/04 09:49:35;;;;;;;21.50;15.10;;;;;;;2.85;100.00;97727.03;5097904;28;20302;-71
2022/12/04 09:52:07;;;;;;;23.37;16.33;;;;;;;2.78;100.00;97732.16;5096784;28;20238;-71
2022/12/04 09:54:40;;;;;;;20.67;15.33;;;;;;;2.69;100.00;97727.16;5097315;28;20214;-71
2022/12/04 09:57:24;;;;;;;20.77;15.57;;;;;;;2.82;100.00;97707.19;5097190;28;20194;-71
2022/12/04 09:59:51;;;;;;;20.27;14.73;;;;;;;2.77;100.00;97699.06;5097507;28;20198;-71
2022/12/04 10:02:44;;;;;;;20.03;14.87;;;;;;;2.77;100.00;97698.22;5097091;28;20231;-71
2022/12/04 10:05:25;;;;;;;20.13;14.17;;;;;;;2.89;100.00;97696.81;5097133;28;20196;-71
2022/12/04 10:08:17;;;;;;;18.73;14.03;;;;;;;2.69;100.00;97693.03;5096848;28;20199;-71
2022/12/04 10:10:53;;;;;;;23.70;15.43;;;;;;;2.68;100.00;97697.50;5096490;28;20257;-71
2022/12/04 10:13:35;;;;;;;22.30;16.20;;;;;;;2.72;100.00;97690.91;5097045;28;20271;-71
2022/12/04 10:16:14;;;;;;;21.43;15.07;;;;;;;2.70;100.00;97681.53;5096800;28;20653;-71
2022/12/04 10:18:52;;;;;;;24.07;16.53;;;;;;;2.67;100.00;97685.34;5080089;28;20283;-71
2022/12/04 10:21:53;;;;;;;21.00;15.93;;;;;;;2.71;100.00;97688.44;5096903;28;20228;-71
2022/12/04 10:24:45;;;;;;;23.30;16.00;;;;;;;2.92;100.00;97685.91;5096936;28;20198;-71
2022/12/04 10:27:24;;;;;;;24.20;16.47;;;;;;;2.85;100.00;97679.78;5092654;28;20291;-71
2022/12/04 10:29:57;;;;;;;21.47;15.47;;;;;;;2.84;100.00;97671.06;5096824;28;20184;-71
2022/12/04 10:32:28;;;;;;;22.93;16.97;;;;;;;2.61;100.00;97672.94;5096408;28;20720;-71
2022/12/04 10:34:59;;;;;;;25.73;17.07;;;;;;;2.68;100.00;97673.88;5096676;28;20184;-71
2022/12/04 10:37:27;;;;;;;25.10;17.00;;;;;;;2.67;100.00;97679.31;5096299;28;20275;-71
2022/12/04 10:40:15;;;;;;;23.63;16.47;;;;;;;2.64;100.00;97693.59;5095810;28;20203;-71
2022/12/04 10:42:52;;;;;;;25.83;16.13;;;;;;;2.73;100.00;97692.53;5095866;28;20208;-71
2022/12/04 10:45:21;;;;;;;22.57;16.03;;;;;;;2.90;100.00;97703.69;5096036;28;20631;-71
2022/12/04 10:47:49;;;;;;;23.03;16.07;;;;;;;2.66;100.00;97715.22;5096275;28;20211;-71
2022/12/04 10:50:22;;;;;;;25.03;17.13;;;;;;;2.76;100.00;97707.09;5096274;28;20215;-72
2022/12/04 10:52:49;;;;;;;23.87;16.50;;;;;;;2.61;100.00;97711.47;5096385;28;20190;-71
2022/12/04 10:55:31;;;;;;;24.57;16.73;;;;;;;2.60;100.00;97704.59;5096049;28;20211;-71
2022/12/04 10:57:58;;;;;;;23.37;16.67;;;;;;;2.72;100.00;97706.66;5096688;28;20192;-71
2022/12/04 11:00:27;;;;;;;22.53;14.80;;;;;;;2.89;100.00;97697.59;5094564;28;20208;-71
2022/12/04 11:02:57;;;;;;;23.53;15.30;;;;;;;2.72;100.00;97692.69;5095693;28;20223;-71
2022/12/04 11:05:28;;;;;;;22.73;15.13;;;;;;;2.64;100.00;97687.53;5095915;28;20200;-71
2022/12/04 11:07:56;;;;;;;21.63;15.40;;;;;;;2.53;100.00;97686.13;5096598;28;20192;-71
2022/12/04 11:10:35;;;;;;;23.17;16.03;;;;;;;2.72;100.00;97690.91;5095496;28;20637;-71
2022/12/04 11:13:23;;;;;;;23.70;15.40;;;;;;;2.68;100.00;97676.50;5095986;28;20184;-71
2022/12/04 11:15:52;;;;;;;22.57;15.50;;;;;;;2.79;100.00;97685.72;5095924;28;20208;-71
2022/12/04 11:18:27;;;;;;;20.70;15.60;;;;;;;2.81;100.00;97678.50;5095513;28;20693;-71
2022/12/04 11:21:07;;;;;;;22.47;14.80;;;;;;;2.57;100.00;97689.25;5095550;28;20224;-71
2022/12/04 11:23:41;;;;;;;20.40;14.67;;;;;;;2.57;100.00;97674.28;5095491;28;20215;-71
2022/12/04 11:26:09;;;;;;;20.67;15.13;;;;;;;2.62;100.00;97676.41;5095693;28;20191;-71
2022/12/04 11:28:39;;;;;;;21.77;14.77;;;;;;;2.67;100.00;97679.31;5095490;28;20230;-71
2022/12/04 11:31:08;;;;;;;21.37;14.60;;;;;;;2.65;100.00;97673.41;5095527;28;20613;-71
2022/12/04 11:33:38;;;;;;;19.67;13.90;;;;;;;2.58;100.00;97668.03;5095216;28;20677;-71
2022/12/04 11:36:18;;;;;;;19.63;13.23;;;;;;;2.77;100.00;97672.81;5095450;28;20199;-71
2022/12/04 11:38:45;;;;;;;20.97;14.27;;;;;;;2.75;100.00;97664.28;5095599;28;20188;-71
2022/12/04 11:41:25;;;;;;;20.47;14.60;;;;;;;2.60;100.00;97673.13;5095240;28;20236;-71
2022/12/04 11:43:52;;;;;;;20.60;14.17;;;;;;;2.50;100.00;97681.25;5095156;28;20212;-72
2022/12/04 11:46:23;;;;;;;21.50;12.83;;;;;;;2.85;100.00;97687.66;5094906;28;20204;-71